Terminal Aerodrome Forecast
Issued by NWS

Home | Current Version | Previous Version | Text Only | Print | Product List | Glossary On
Versions: 1 2 3 4 5 6 7 8 9 10 11 12 13 14 15 16 17 18 19 20
470
FTUS41 KBTV 251727
TAFSLK
TAF
KSLK 251727Z 2518/2618 33008G16KT P6SM FEW050
     FM252200 34005KT P6SM SKC
     FM260600 00000KT 1/4SM FZFG BKN001
     FM261300 VRB03KT P6SM FEW150=

USA.gov is the U.S. government's official web portal to all federal, state and local government web resources and services.